Time;durP1;ratioP1;P1;durP2;ratioP2;P2;SDS_P1;SDS_P2;PMS_P1;PMS_P2;Temp;Humidity;BMP_temperature;BMP_pressure;BME280_temperature;BME280_humidity;BME280_pressure;Samples;Min_cycle;Max_cycle;Signal;HPM_P1;HPM_P2
2022/11/19 00:02:09;;;;;;;26.38;15.07;;;;;;;5.55;100.00;100710.34;5005062;28;20029;-70
2022/11/19 00:04:34;;;;;;;36.03;22.30;;;;;;;5.28;100.00;100708.53;5012069;28;20030;-68
2022/11/19 00:06:59;;;;;;;40.75;25.63;;;;;;;5.11;100.00;100714.25;5018521;28;20045;-68
2022/11/19 00:09:25;;;;;;;42.97;24.30;;;;;;;4.98;100.00;100716.91;5005738;28;20541;-68
2022/11/19 00:14:34;;;;;;;43.40;22.23;;;;;;;5.11;100.00;100718.88;4988069;28;20096;-68
2022/11/19 00:17:00;;;;;;;49.65;25.80;;;;;;;4.80;100.00;100725.53;4993297;28;20018;-68
2022/11/19 00:19:25;;;;;;;52.13;26.75;;;;;;;4.73;100.00;100726.53;5006701;28;20030;-68
2022/11/19 00:21:51;;;;;;;53.72;29.00;;;;;;;4.73;100.00;100731.97;5006465;28;20635;-68
2022/11/19 00:24:17;;;;;;;51.13;28.55;;;;;;;4.60;100.00;100735.38;4989077;28;20032;-68
2022/11/19 00:26:42;;;;;;;52.95;26.38;;;;;;;4.64;100.00;100733.97;4987715;28;20114;-69
2022/11/19 00:29:10;;;;;;;46.22;24.40;;;;;;;4.92;100.00;100726.69;5006196;28;20112;-68
2022/11/19 00:31:36;;;;;;;49.65;22.55;;;;;;;4.72;100.00;100727.56;5007363;28;20104;-67
2022/11/19 00:34:02;;;;;;;51.47;25.60;;;;;;;4.63;100.00;100729.56;5006888;28;20109;-68
2022/11/19 00:36:27;;;;;;;54.70;26.88;;;;;;;4.65;100.00;100731.03;5005511;28;20439;-69
2022/11/19 00:38:53;;;;;;;47.83;24.35;;;;;;;4.85;100.00;100733.94;5006147;28;20125;-68
2022/11/19 00:41:18;;;;;;;50.83;23.80;;;;;;;4.68;100.00;100735.28;5007654;28;20029;-68
2022/11/19 00:43:47;;;;;;;54.97;27.63;;;;;;;4.94;100.00;100734.66;5006877;28;20108;-68
2022/11/19 00:46:16;;;;;;;;;;;;;;;5.21;100.00;100747.41;5007608;28;20030;-69
2022/11/19 00:48:42;;;;;;;56.50;27.23;;;;;;;4.55;100.00;100744.13;5005043;28;20284;-68
2022/11/19 00:51:08;;;;;;;63.95;30.70;;;;;;;4.39;100.00;100741.66;5007551;28;20033;-68
2022/11/19 00:53:34;;;;;;;54.92;29.17;;;;;;;4.41;100.00;100745.06;5006508;28;20026;-68
2022/11/19 00:56:01;;;;;;;58.78;28.90;;;;;;;4.35;100.00;100740.34;5007343;28;20368;-68
2022/11/19 00:58:27;;;;;;;53.38;30.10;;;;;;;4.32;100.00;100743.47;5005068;28;20041;-68
2022/11/19 01:00:52;;;;;;;44.13;23.00;;;;;;;4.48;100.00;100750.56;5007960;28;20026;-68
2022/11/19 01:03:17;;;;;;;52.50;27.33;;;;;;;4.44;100.00;100744.66;5006480;28;20095;-68
2022/11/19 01:05:43;;;;;;;50.58;25.98;;;;;;;4.38;100.00;100748.16;5023954;28;20518;-68
2022/11/19 01:08:08;;;;;;;45.47;25.15;;;;;;;4.64;100.00;100755.72;5012596;28;20058;-68
2022/11/19 01:10:34;;;;;;;46.58;25.83;;;;;;;4.68;100.00;100762.47;5006759;28;20034;-69
2022/11/19 01:15:47;;;;;;;43.05;22.15;;;;;;;4.58;100.00;100764.66;5006905;28;20471;-68
2022/11/19 01:18:13;;;;;;;41.15;20.15;;;;;;;4.44;100.00;100760.97;5005659;28;20044;-68
2022/11/19 01:20:38;;;;;;;50.20;27.50;;;;;;;4.25;100.00;100761.56;5005095;28;20022;-68
2022/11/19 01:23:03;;;;;;;49.58;27.25;;;;;;;4.20;100.00;100764.88;5005934;28;20374;-68
2022/11/19 01:25:29;;;;;;;44.22;23.85;;;;;;;4.36;100.00;100763.81;5010740;28;20034;-68
2022/11/19 01:27:54;;;;;;;46.00;25.52;;;;;;;4.27;100.00;100767.69;5009594;28;20036;-69
2022/11/19 01:30:20;;;;;;;46.50;25.35;;;;;;;4.13;100.00;100775.66;5011527;28;20033;-68
2022/11/19 01:32:45;;;;;;;49.60;27.35;;;;;;;4.14;100.00;100773.78;5009576;28;20026;-68
2022/11/19 01:35:10;;;;;;;42.92;22.58;;;;;;;4.19;100.00;100773.22;5010793;28;20037;-68
2022/11/19 01:37:35;;;;;;;46.55;24.65;;;;;;;4.24;100.00;100771.63;5008678;28;20519;-68
2022/11/19 01:40:01;;;;;;;33.97;17.20;;;;;;;4.42;100.00;100779.34;5007222;28;20026;-68
2022/11/19 01:42:48;;;;;;;38.97;20.10;;;;;;;4.41;100.00;100791.28;5010293;28;20105;-69
2022/11/19 01:45:33;;;;;;;38.35;18.08;;;;;;;4.30;100.00;100786.31;5010574;28;20053;-68
2022/11/19 01:48:22;;;;;;;38.78;22.15;;;;;;;4.66;100.00;100787.16;5009467;28;20033;-68
2022/11/19 01:50:52;;;;;;;25.35;14.45;;;;;;;4.46;100.00;100785.22;5000645;28;20046;-68
2022/11/19 01:53:19;;;;;;;37.92;22.55;;;;;;;4.42;100.00;100801.13;5009962;28;20488;-69
2022/11/19 01:55:45;;;;;;;40.70;23.30;;;;;;;4.03;100.00;100804.19;5009988;28;20568;-68
2022/11/19 01:58:15;;;;;;;32.72;18.52;;;;;;;4.06;100.00;100801.09;5009313;28;20296;-68
2022/11/19 02:00:41;;;;;;;36.72;20.20;;;;;;;4.03;100.00;100796.88;5010189;28;20021;-68
2022/11/19 02:03:08;;;;;;;33.35;17.58;;;;;;;3.99;100.00;100805.59;5022497;28;20354;-68
2022/11/19 02:05:34;;;;;;;29.00;16.60;;;;;;;4.10;100.00;100813.25;5029386;28;20369;-68
2022/11/19 02:07:59;;;;;;;32.55;19.88;;;;;;;4.01;100.00;100803.53;5015162;28;20056;-68
2022/11/19 02:10:53;;;;;;;34.13;22.58;;;;;;;4.05;100.00;100815.69;5009836;28;20040;-70
2022/11/19 02:13:37;;;;;;;28.65;17.30;;;;;;;4.27;100.00;100819.34;5009742;28;20030;-68
2022/11/19 02:16:10;;;;;;;35.15;18.92;;;;;;;3.98;100.00;100818.31;5009927;28;20603;-68
2022/11/19 02:18:58;;;;;;;34.75;18.60;;;;;;;3.81;100.00;100814.13;5006646;28;20060;-68
2022/11/19 02:21:43;;;;;;;35.42;21.42;;;;;;;3.81;100.00;100825.00;4990478;28;20026;-68
2022/11/19 02:24:26;;;;;;;29.30;17.35;;;;;;;4.39;100.00;100815.09;4994793;28;20061;-68
2022/11/19 02:27:25;;;;;;;30.20;25.00;;;;;;;4.89;100.00;100821.47;5009561;28;20070;-68
2022/11/19 02:30:03;;;;;;;21.80;14.90;;;;;;;4.37;100.00;100819.88;5010165;28;20083;-67
2022/11/19 02:32:49;;;;;;;37.97;23.27;;;;;;;3.76;100.00;100827.44;5008809;28;20034;-68
2022/11/19 02:35:34;;;;;;;34.17;21.73;;;;;;;3.57;100.00;100828.81;5007207;28;20030;-68
2022/11/19 02:38:12;;;;;;;31.02;18.10;;;;;;;3.77;100.00;100826.41;5008661;28;20009;-68
2022/11/19 02:40:45;;;;;;;29.45;17.88;;;;;;;3.82;100.00;100827.50;5009290;28;20034;-67
2022/11/19 02:43:35;;;;;;;28.08;17.52;;;;;;;3.72;100.00;100823.41;5009718;28;20416;-68
2022/11/19 02:46:05;;;;;;;35.13;21.27;;;;;;;3.46;100.00;100821.13;5007953;28;20029;-68
2022/11/19 02:48:37;;;;;;;34.22;21.48;;;;;;;3.37;100.00;100828.50;5008522;28;20022;-68
2022/11/19 02:51:05;;;;;;;28.80;17.10;;;;;;;3.80;100.00;100831.44;5009211;28;20053;-68
2022/11/19 02:53:31;;;;;;;27.53;18.37;;;;;;;3.64;100.00;100833.28;5022253;28;20718;-67
2022/11/19 02:56:12;;;;;;;18.77;14.27;;;;;;;3.86;100.00;100825.28;5008604;28;20022;-68
2022/11/19 03:04:29;;;;;;;27.52;17.55;;;;;;;3.46;100.00;100837.41;4992977;28;20448;-68
2022/11/19 03:07:05;;;;;;;28.33;16.10;;;;;;;3.42;100.00;100841.53;4988520;28;20507;-69
2022/11/19 03:09:33;;;;;;;31.92;20.80;;;;;;;3.11;100.00;100840.59;5002857;28;20022;-68
2022/11/19 03:12:23;;;;;;;23.48;13.45;;;;;;;3.47;100.00;100839.94;5009180;28;20025;-69
2022/11/19 03:18:15;;;;;;;33.30;18.90;;;;;;;3.22;100.00;100847.47;4998851;28;20116;-68
2022/11/19 03:20:47;;;;;;;28.45;16.52;;;;;;;3.29;100.00;100842.97;5008469;28;20030;-69
2022/11/19 03:23:21;;;;;;;34.28;22.25;;;;;;;3.03;100.00;100854.22;5008148;28;20026;-68
2022/11/19 03:25:55;;;;;;;32.72;20.35;;;;;;;3.02;100.00;100855.25;5007200;28;20041;-68
2022/11/19 03:28:25;;;;;;;29.10;18.65;;;;;;;3.10;100.00;100857.91;5009172;28;20032;-68
2022/11/19 03:30:54;;;;;;;32.88;21.20;;;;;;;3.07;100.00;100854.72;5008970;28;20473;-68
2022/11/19 03:33:24;;;;;;;36.00;22.75;;;;;;;3.15;100.00;100861.94;5006899;28;20022;-69
2022/11/19 03:35:54;;;;;;;38.92;23.77;;;;;;;2.87;100.00;100859.78;4989820;28;20121;-67
2022/11/19 03:38:28;;;;;;;39.50;24.75;;;;;;;2.86;100.00;100867.06;4988633;28;20062;-68
2022/11/19 03:40:54;;;;;;;34.33;18.95;;;;;;;3.12;100.00;100858.56;4989288;28;20465;-68
2022/11/19 03:43:25;;;;;;;34.80;22.40;;;;;;;3.25;100.00;100857.13;4988877;28;20379;-68
2022/11/19 03:45:52;;;;;;;34.15;22.02;;;;;;;2.89;100.00;100852.31;5007675;28;20025;-68
2022/11/19 03:48:21;;;;;;;36.50;22.50;;;;;;;3.04;100.00;100855.06;5007218;28;20034;-68
2022/11/19 03:50:48;;;;;;;34.22;19.80;;;;;;;2.97;100.00;100860.38;5008083;28;20057;-68
2022/11/19 03:53:14;;;;;;;31.37;19.00;;;;;;;2.90;100.00;100856.72;4991498;28;20022;-68
2022/11/19 03:55:47;;;;;;;32.05;19.05;;;;;;;3.00;100.00;100864.63;5006934;28;20026;-68
2022/11/19 03:58:13;;;;;;;30.42;17.63;;;;;;;3.06;100.00;100853.88;5007516;28;20042;-68
2022/11/19 04:00:38;;;;;;;30.75;18.55;;;;;;;2.92;100.00;100870.94;5007836;28;20036;-68
2022/11/19 04:03:03;;;;;;;29.95;16.30;;;;;;;2.99;100.00;100862.91;5006960;28;20072;-68
2022/11/19 04:05:29;;;;;;;28.15;16.83;;;;;;;3.00;100.00;100859.19;5021900;28;20018;-68
2022/11/19 04:07:54;;;;;;;37.33;23.65;;;;;;;2.81;100.00;100871.34;5026897;28;20073;-70
2022/11/19 04:10:20;;;;;;;29.63;18.25;;;;;;;3.12;100.00;100872.13;5007689;28;20042;-69
2022/11/19 04:12:45;;;;;;;25.15;13.95;;;;;;;3.10;100.00;100871.47;5007767;28;20395;-69
2022/11/19 04:15:13;;;;;;;25.17;15.07;;;;;;;3.33;100.00;100876.03;5006307;28;20099;-68
2022/11/19 04:17:38;;;;;;;32.25;19.50;;;;;;;3.19;100.00;100880.38;5006755;28;20034;-68
2022/11/19 04:20:06;;;;;;;29.10;17.90;;;;;;;3.05;100.00;100883.91;5007698;28;20535;-68
2022/11/19 04:22:31;;;;;;;33.38;21.33;;;;;;;3.11;100.00;100883.19;5007291;28;20068;-67
2022/11/19 04:24:56;;;;;;;36.38;22.15;;;;;;;2.93;100.00;100883.47;5006152;28;20026;-68
2022/11/19 04:27:22;;;;;;;33.85;21.20;;;;;;;2.98;100.00;100889.19;5007741;28;20033;-67
2022/11/19 04:29:47;;;;;;;42.00;26.33;;;;;;;2.80;100.00;100896.78;5007709;28;20620;-68
2022/11/19 04:32:12;;;;;;;36.70;23.85;;;;;;;2.80;100.00;100902.22;5006469;28;20034;-68
2022/11/19 04:34:37;;;;;;;33.88;21.00;;;;;;;2.66;100.00;100897.53;5006276;28;20133;-68
2022/11/19 04:37:03;;;;;;;41.00;25.50;;;;;;;2.69;100.00;100900.75;5006987;28;20034;-68
2022/11/19 04:39:28;;;;;;;40.47;23.15;;;;;;;2.57;100.00;100907.56;5006435;28;20038;-68
2022/11/19 04:41:53;;;;;;;40.72;26.08;;;;;;;2.59;100.00;100910.97;5007854;28;20033;-68
2022/11/19 04:44:19;;;;;;;41.33;24.70;;;;;;;2.60;100.00;100912.66;5005231;28;20030;-68
2022/11/19 04:46:44;;;;;;;30.50;19.60;;;;;;;2.98;100.00;100905.47;5006228;28;20044;-68
2022/11/19 04:49:09;;;;;;;34.15;20.17;;;;;;;2.58;100.00;100915.53;5007347;28;20069;-67
2022/11/19 04:51:34;;;;;;;36.97;23.15;;;;;;;2.68;100.00;100914.47;5006935;28;20366;-68
2022/11/19 04:54:00;;;;;;;41.40;27.33;;;;;;;2.52;100.00;100920.81;5005886;28;20026;-68
2022/11/19 04:56:25;;;;;;;32.65;19.38;;;;;;;2.57;100.00;100923.84;5007360;28;20026;-68
2022/11/19 04:58:50;;;;;;;40.45;23.73;;;;;;;2.66;100.00;100921.94;5008992;28;20599;-67
2022/11/19 05:01:16;;;;;;;32.90;19.40;;;;;;;2.53;100.00;100927.91;5011485;28;20034;-68
2022/11/19 05:03:41;;;;;;;39.35;25.73;;;;;;;2.47;100.00;100921.34;5009556;28;20072;-68
2022/11/19 05:06:06;;;;;;;42.08;25.02;;;;;;;2.47;100.00;100929.47;5030646;28;20120;-67
2022/11/19 05:08:32;;;;;;;28.35;15.48;;;;;;;2.52;100.00;100937.94;5030717;28;20045;-68
2022/11/19 05:10:57;;;;;;;33.42;20.00;;;;;;;2.90;98.33;100929.94;5031539;28;20037;-68
2022/11/19 05:13:22;;;;;;;30.55;21.40;;;;;;;3.16;95.32;100928.78;5028260;28;20100;-68
2022/11/19 05:15:47;;;;;;;35.17;23.95;;;;;;;2.58;100.00;100945.34;5011624;28;20037;-68
2022/11/19 05:18:13;;;;;;;33.45;17.90;;;;;;;2.85;97.12;100948.63;5010252;28;20081;-68
2022/11/19 05:20:39;;;;;;;39.03;26.30;;;;;;;2.44;100.00;100950.69;5010867;28;20032;-68
2022/11/19 05:23:04;;;;;;;38.63;24.38;;;;;;;2.37;100.00;100961.34;5005565;28;20048;-68
2022/11/19 05:25:30;;;;;;;23.67;14.55;;;;;;;2.60;100.00;100964.16;5008771;28;20361;-69
2022/11/19 05:27:55;;;;;;;35.42;22.77;;;;;;;2.39;100.00;100964.75;5008255;28;20040;-69
2022/11/19 05:30:20;;;;;;;33.53;20.08;;;;;;;2.69;99.40;100962.28;5011151;28;20096;-68
2022/11/19 05:32:46;;;;;;;38.25;26.52;;;;;;;2.61;98.96;100963.13;5009951;28;20021;-68
2022/11/19 05:35:11;;;;;;;24.38;18.15;;;;;;;2.98;96.39;100961.59;5010223;28;20461;-68
2022/11/19 05:37:36;;;;;;;29.88;18.50;;;;;;;2.82;96.57;100965.25;5008761;28;20033;-68
2022/11/19 05:40:02;;;;;;;33.88;25.05;;;;;;;2.98;95.39;100967.03;5010520;28;20034;-68
2022/11/19 05:42:28;;;;;;;35.15;21.75;;;;;;;2.44;98.82;100964.25;5007546;28;20034;-68
2022/11/19 05:44:53;;;;;;;41.95;28.45;;;;;;;2.19;100.00;100963.47;5010404;28;20038;-68
2022/11/19 05:47:18;;;;;;;37.85;24.98;;;;;;;2.43;99.37;100959.81;5009051;28;20053;-67
2022/11/19 05:49:43;;;;;;;28.02;20.38;;;;;;;2.88;95.10;100961.81;5010327;28;20038;-68
2022/11/19 05:52:10;;;;;;;35.67;24.10;;;;;;;2.53;97.51;100971.28;5009809;28;20033;-67
2022/11/19 05:54:35;;;;;;;33.95;21.92;;;;;;;2.59;96.19;100971.47;5009111;28;20034;-68
2022/11/19 05:57:00;;;;;;;33.03;21.73;;;;;;;2.68;95.08;100974.13;5008214;28;20033;-68
2022/11/19 05:59:26;;;;;;;36.38;25.27;;;;;;;2.54;96.12;100976.56;5010511;28;20516;-68
2022/11/19 06:01:51;;;;;;;32.25;26.17;;;;;;;2.68;97.30;100979.53;5009818;28;20072;-69
2022/11/19 06:04:16;;;;;;;34.58;22.20;;;;;;;2.28;98.21;100984.09;5015145;28;20765;-68
2022/11/19 06:06:42;;;;;;;32.65;21.15;;;;;;;2.27;99.17;100982.41;5008405;28;20122;-68
2022/11/19 06:09:07;;;;;;;40.45;27.05;;;;;;;2.20;99.85;100989.53;5009226;28;20480;-68
2022/11/19 06:11:49;;;;;;;40.95;27.73;;;;;;;2.24;99.20;100989.03;5010176;28;20022;-67
2022/11/19 06:14:21;;;;;;;27.95;17.35;;;;;;;2.49;98.41;100987.09;5009934;28;20489;-68
2022/11/19 06:16:54;;;;;;;29.95;22.42;;;;;;;2.72;95.61;100987.16;5008654;28;20048;-68
2022/11/19 06:19:19;;;;;;;37.17;22.38;;;;;;;2.28;97.38;101006.63;5010385;28;20030;-68
2022/11/19 06:21:45;;;;;;;32.33;20.83;;;;;;;2.43;97.20;101004.03;5009400;28;20484;-68
2022/11/19 06:24:11;;;;;;;38.65;25.83;;;;;;;2.26;97.34;101007.81;5009876;28;20037;-67
2022/11/19 06:26:37;;;;;;;42.17;29.38;;;;;;;2.08;99.49;101011.56;5009060;28;20033;-67
2022/11/19 06:29:03;;;;;;;41.58;28.58;;;;;;;2.01;99.65;101012.41;5009221;28;20510;-68
2022/11/19 06:31:28;;;;;;;41.47;28.23;;;;;;;1.92;100.00;101019.69;5009111;28;20105;-67
2022/11/19 06:33:53;;;;;;;42.17;29.33;;;;;;;1.90;100.00;101026.31;5009512;28;20108;-68
2022/11/19 06:36:19;;;;;;;40.35;28.40;;;;;;;1.97;100.00;101032.72;5006429;28;20045;-67
2022/11/19 06:38:45;;;;;;;39.30;23.80;;;;;;;2.07;100.00;101036.09;5009066;28;20036;-68
2022/11/19 06:41:10;;;;;;;30.45;17.92;;;;;;;2.53;96.72;101042.63;5008481;28;20113;-68
2022/11/19 06:43:35;;;;;;;42.20;29.20;;;;;;;2.10;99.21;101040.34;5000589;28;20500;-69
2022/11/19 06:46:01;;;;;;;31.27;21.48;;;;;;;2.33;97.39;101035.91;5002234;28;20041;-68
2022/11/19 06:48:26;;;;;;;40.42;27.42;;;;;;;2.38;96.04;101043.50;4989210;28;20053;-68
2022/11/19 06:50:51;;;;;;;40.63;26.83;;;;;;;2.14;98.22;101042.56;4990002;28;20401;-68
2022/11/19 06:53:16;;;;;;;33.60;23.15;;;;;;;1.97;99.85;101038.16;5005544;28;20038;-68
2022/11/19 06:55:42;;;;;;;28.13;18.73;;;;;;;2.44;96.75;101034.72;5008612;28;20615;-67
2022/11/19 06:58:07;;;;;;;37.40;24.42;;;;;;;2.36;96.45;101035.56;5008419;28;20104;-68
2022/11/19 07:00:34;;;;;;;40.00;28.42;;;;;;;2.07;97.79;101036.09;5008963;28;20026;-68
2022/11/19 07:02:59;;;;;;;38.92;27.67;;;;;;;2.40;95.78;101049.63;5006095;28;20034;-67
2022/11/19 07:05:25;;;;;;;44.22;29.90;;;;;;;1.91;99.55;101047.81;5008812;28;20036;-69
2022/11/19 07:07:50;;;;;;;29.13;18.95;;;;;;;2.34;97.22;101054.72;5007371;28;20093;-69
2022/11/19 07:10:16;;;;;;;39.88;25.15;;;;;;;2.10;98.40;101056.63;5007950;28;20515;-68
2022/11/19 07:12:41;;;;;;;34.08;21.48;;;;;;;2.36;95.91;101062.66;5006369;28;20025;-68
2022/11/19 07:15:07;;;;;;;38.25;25.58;;;;;;;1.94;99.25;101058.31;5004708;28;20065;-68
2022/11/19 07:17:33;;;;;;;39.88;26.42;;;;;;;2.15;97.94;101062.38;5007935;28;20088;-68
2022/11/19 07:19:58;;;;;;;34.85;24.58;;;;;;;2.28;95.44;101062.66;5006651;28;20412;-68
2022/11/19 07:22:23;;;;;;;42.88;30.48;;;;;;;2.06;97.42;101058.81;5006799;28;20421;-68
2022/11/19 07:24:49;;;;;;;41.33;27.67;;;;;;;1.95;98.07;101064.56;5002837;28;20030;-68
2022/11/19 07:27:15;;;;;;;29.92;20.38;;;;;;;2.08;97.97;101064.91;5007953;28;20079;-68
2022/11/19 07:29:40;;;;;;;40.55;27.42;;;;;;;2.12;96.94;101076.25;5007967;28;20414;-68
2022/11/19 07:32:06;;;;;;;41.45;28.40;;;;;;;2.16;95.23;101072.19;5006107;28;20068;-68
2022/11/19 07:34:31;;;;;;;39.42;25.08;;;;;;;2.12;95.81;101076.25;5008628;28;20029;-67
2022/11/19 07:36:56;;;;;;;43.03;29.85;;;;;;;1.87;98.50;101078.09;5006115;28;20048;-68
2022/11/19 07:39:21;;;;;;;46.30;31.30;;;;;;;1.96;97.93;101094.19;5008876;28;20025;-69
2022/11/19 07:44:30;;;;;;;42.42;24.95;;;;;;;2.05;95.37;101086.91;5008531;28;20080;-69
2022/11/19 07:46:56;;;;;;;36.45;23.63;;;;;;;1.98;96.33;101092.19;5007505;28;20030;-69
2022/11/19 07:49:22;;;;;;;45.10;28.17;;;;;;;1.87;97.14;101091.63;5006893;28;20038;-68
2022/11/19 07:51:47;;;;;;;30.30;20.48;;;;;;;2.33;93.45;101092.81;5003883;28;20488;-69
2022/11/19 07:54:13;;;;;;;37.00;26.00;;;;;;;2.37;92.72;101096.03;5006373;28;20412;-68
2022/11/19 07:56:39;;;;;;;37.58;25.50;;;;;;;2.22;92.95;101098.59;5008068;28;20032;-68
2022/11/19 07:59:04;;;;;;;38.65;27.63;;;;;;;1.95;95.34;101106.03;5007072;28;20042;-69
2022/11/19 08:01:29;;;;;;;42.00;27.38;;;;;;;1.95;95.40;101102.50;5004877;28;20045;-69
2022/11/19 08:03:55;;;;;;;27.92;18.95;;;;;;;2.12;94.26;101106.03;5007078;28;20512;-70
2022/11/19 08:06:21;;;;;;;35.22;22.83;;;;;;;2.02;94.49;101108.91;5007944;28;20030;-68
2022/11/19 08:08:47;;;;;;;36.13;20.98;;;;;;;2.16;93.20;101107.41;5006761;28;20100;-69
2022/11/19 08:11:14;;;;;;;40.08;26.30;;;;;;;1.79;96.43;101114.16;5007370;28;20109;-68
2022/11/19 08:13:39;;;;;;;30.10;20.30;;;;;;;2.25;93.62;101114.53;5006153;28;20472;-69
2022/11/19 08:16:08;;;;;;;37.20;25.10;;;;;;;2.10;93.72;101110.78;5003837;28;20030;-69
2022/11/19 08:18:33;;;;;;;34.25;21.63;;;;;;;2.18;93.20;101114.38;5007390;28;20483;-69
2022/11/19 08:21:09;;;;;;;32.92;22.85;;;;;;;2.49;90.62;101116.38;5007222;28;20026;-69
2022/11/19 08:23:36;;;;;;;39.83;27.55;;;;;;;2.02;94.19;101125.16;5006470;28;20038;-69
2022/11/19 08:26:02;;;;;;;33.88;24.52;;;;;;;1.96;94.97;101118.56;5007334;28;20025;-68
2022/11/19 08:28:28;;;;;;;35.90;22.23;;;;;;;2.02;94.21;101126.00;5007261;28;20073;-68
2022/11/19 08:30:54;;;;;;;31.67;19.58;;;;;;;2.21;92.47;101124.00;5006255;28;20037;-70
2022/11/19 08:33:19;;;;;;;27.67;19.23;;;;;;;2.28;91.79;101135.84;5006312;28;20021;-69
2022/11/19 08:35:45;;;;;;;39.50;28.08;;;;;;;2.11;91.67;101134.16;5020913;28;20022;-69
2022/11/19 08:38:10;;;;;;;29.23;18.90;;;;;;;2.05;92.88;101136.53;5025798;28;20052;-69
2022/11/19 08:40:35;;;;;;;39.50;27.83;;;;;;;1.94;93.94;101138.72;5026538;28;20404;-68
2022/11/19 08:43:01;;;;;;;33.40;22.38;;;;;;;1.98;93.43;101140.94;5026618;28;20037;-69
2022/11/19 08:45:37;;;;;;;31.33;21.90;;;;;;;2.18;92.49;101140.59;5026831;28;20013;-69
2022/11/19 08:48:05;;;;;;;29.45;19.83;;;;;;;2.40;90.28;101141.78;5025370;28;20040;-68
2022/11/19 08:50:31;;;;;;;39.58;27.73;;;;;;;1.89;93.98;101141.94;5013799;28;20022;-68
2022/11/19 08:53:04;;;;;;;41.38;27.83;;;;;;;1.85;95.34;101150.56;5006170;28;20034;-69
2022/11/19 08:55:30;;;;;;;29.65;22.52;;;;;;;2.24;92.81;101150.78;5007217;28;20080;-69
2022/11/19 08:58:00;;;;;;;36.42;23.42;;;;;;;2.20;91.31;101152.13;5006693;28;20717;-69
2022/11/19 09:00:26;;;;;;;27.77;17.67;;;;;;;2.38;90.42;101154.66;5007326;28;20591;-69
2022/11/19 09:02:51;;;;;;;33.15;20.67;;;;;;;2.28;90.23;101146.69;5006221;28;20017;-69
2022/11/19 09:05:16;;;;;;;37.55;26.95;;;;;;;2.00;93.25;101151.59;5006758;28;20516;-67
2022/11/19 09:07:42;;;;;;;30.77;25.23;;;;;;;2.58;88.51;101154.13;5006147;28;20104;-68
2022/11/19 09:10:08;;;;;;;35.35;21.55;;;;;;;2.01;91.30;101150.56;5006591;28;20026;-68
2022/11/19 09:12:33;;;;;;;37.00;27.45;;;;;;;1.86;94.18;101163.91;5007190;28;20057;-68
2022/11/19 09:14:58;;;;;;;34.33;18.85;;;;;;;2.07;92.35;101164.28;5006479;28;20057;-68
2022/11/19 09:17:24;;;;;;;39.80;27.45;;;;;;;1.98;92.90;101156.34;5006726;28;20083;-68
2022/11/19 09:19:49;;;;;;;36.03;21.58;;;;;;;2.01;93.33;101161.41;5003259;28;20057;-68
2022/11/19 09:22:14;;;;;;;25.70;18.20;;;;;;;2.40;90.97;101155.34;5006250;28;20030;-68
2022/11/19 09:24:40;;;;;;;33.85;21.38;;;;;;;2.24;90.11;101161.63;5005314;28;20014;-68
2022/11/19 09:27:05;;;;;;;23.98;19.73;;;;;;;2.47;89.53;101167.19;5006624;28;20061;-68
2022/11/19 09:29:30;;;;;;;37.85;26.58;;;;;;;1.90;93.69;101164.44;5006895;28;20084;-67
2022/11/19 09:31:55;;;;;;;34.17;22.10;;;;;;;1.92;94.10;101170.53;5005749;28;20117;-68
2022/11/19 09:34:21;;;;;;;39.38;28.02;;;;;;;2.09;92.40;101172.25;5006803;28;20026;-69
2022/11/19 09:36:46;;;;;;;34.97;25.08;;;;;;;2.02;93.79;101172.06;5006323;28;20034;-68
2022/11/19 09:39:11;;;;;;;34.63;21.92;;;;;;;1.93;94.14;101166.84;5006397;28;20022;-68
2022/11/19 09:41:43;;;;;;;34.55;24.30;;;;;;;2.14;92.11;101171.75;5006847;28;20029;-67
2022/11/19 09:44:27;;;;;;;35.22;25.33;;;;;;;1.87;94.03;101183.72;5006733;28;20026;-68
2022/11/19 09:47:32;;;;;;;33.60;23.48;;;;;;;2.41;92.65;101201.25;5009843;28;20037;-68
2022/11/19 09:50:21;;;;;;;33.15;20.23;;;;;;;2.20;91.59;101195.47;5010419;28;20038;-68
2022/11/19 09:52:56;;;;;;;25.92;16.10;;;;;;;2.44;89.82;101195.50;5009473;28;20495;-68
2022/11/19 09:55:31;;;;;;;30.38;18.58;;;;;;;2.30;90.15;101199.72;5010627;28;20028;-68
2022/11/19 09:57:58;;;;;;;34.47;25.15;;;;;;;2.10;92.54;101203.75;5009454;28;20045;-68
2022/11/19 10:00:29;;;;;;;28.63;19.13;;;;;;;2.31;90.54;101208.69;5010631;28;20699;-68
2022/11/19 10:02:56;;;;;;;31.05;19.25;;;;;;;2.23;89.97;101206.84;5009185;28;20092;-70
2022/11/19 10:05:38;;;;;;;24.20;17.93;;;;;;;2.41;90.15;101206.66;5010315;28;20408;-68
2022/11/19 10:08:54;;;;;;;34.75;22.45;;;;;;;2.46;89.51;101214.28;5008736;28;20699;-67
2022/11/19 10:11:44;;;;;;;20.70;17.40;;;;;;;2.44;88.51;101211.75;4992603;28;20108;-68
2022/11/19 10:14:52;;;;;;;27.08;18.63;;;;;;;2.15;89.02;101217.66;5009807;28;20115;-68
2022/11/19 10:17:50;;;;;;;31.92;20.90;;;;;;;1.91;91.73;101218.44;5004528;28;20104;-69
2022/11/19 10:20:31;;;;;;;32.72;22.63;;;;;;;1.77;92.74;101224.47;5009469;28;20068;-67
2022/11/19 10:23:00;;;;;;;29.08;18.08;;;;;;;2.11;89.97;101220.84;5008702;28;20030;-69
2022/11/19 10:25:37;;;;;;;31.58;20.58;;;;;;;2.12;91.62;101222.53;5007620;28;20084;-69
2022/11/19 10:28:16;;;;;;;32.92;20.45;;;;;;;2.21;89.34;101222.41;5008375;28;20025;-68
2022/11/19 10:30:50;;;;;;;23.67;17.02;;;;;;;2.23;87.08;101224.94;5006622;28;20030;-68
2022/11/19 10:33:33;;;;;;;28.98;19.08;;;;;;;1.90;89.82;101233.00;5008838;28;20403;-69
2022/11/19 10:36:32;;;;;;;22.35;18.33;;;;;;;2.28;87.30;101233.41;5008773;28;20036;-68
2022/11/19 10:39:10;;;;;;;27.55;18.02;;;;;;;1.94;88.71;101236.22;5003966;28;20069;-68
2022/11/19 10:41:49;;;;;;;25.25;18.17;;;;;;;2.28;86.94;101236.13;5009502;28;20092;-68
2022/11/19 10:44:39;;;;;;;28.75;17.02;;;;;;;1.85;89.32;101231.78;5002947;28;20129;-67
2022/11/19 10:47:08;;;;;;;29.27;26.30;;;;;;;2.37;86.20;101231.56;4987789;28;20034;-68
2022/11/19 10:49:38;;;;;;;20.90;16.48;;;;;;;2.17;87.28;101222.91;4988435;28;20110;-69
2022/11/19 10:52:08;;;;;;;27.17;18.35;;;;;;;1.99;87.31;101223.03;4987772;28;20105;-68
2022/11/19 10:54:33;;;;;;;27.92;17.60;;;;;;;1.79;87.07;101225.19;4988591;28;20118;-67
2022/11/19 10:56:59;;;;;;;23.92;15.57;;;;;;;1.71;89.24;101225.13;4987292;28;20202;-68
2022/11/19 10:59:27;;;;;;;27.52;18.75;;;;;;;1.63;90.40;101236.81;4989287;28;20114;-69
2022/11/19 11:01:58;;;;;;;20.25;14.00;;;;;;;1.86;88.22;101226.22;4988762;28;20162;-68
2022/11/19 11:04:26;;;;;;;26.13;20.27;;;;;;;2.01;86.21;101227.25;4989802;28;20022;-68
2022/11/19 11:07:00;;;;;;;27.98;18.65;;;;;;;1.63;90.25;101234.09;4988759;28;20055;-69
2022/11/19 11:09:30;;;;;;;17.20;12.27;;;;;;;1.76;89.14;101222.78;4989484;28;20501;-68
2022/11/19 11:14:53;;;;;;;25.60;18.85;;;;;;;1.56;90.62;101233.03;4989119;28;20048;-68
2022/11/19 11:17:27;;;;;;;27.05;18.58;;;;;;;1.61;90.02;101236.09;4988301;28;20038;-68
2022/11/19 11:20:19;;;;;;;17.48;15.48;;;;;;;2.26;86.38;101232.75;4989536;28;20121;-67
2022/11/19 11:22:49;;;;;;;28.23;18.17;;;;;;;1.74;88.06;101235.66;4983605;28;20038;-68
2022/11/19 11:25:26;;;;;;;19.45;13.77;;;;;;;2.12;87.48;101230.66;4988755;28;20034;-67
2022/11/19 11:28:14;;;;;;;24.98;18.58;;;;;;;1.80;86.62;101224.16;4988517;28;20033;-69
2022/11/19 11:30:53;;;;;;;22.33;16.58;;;;;;;1.84;85.93;101225.53;4988409;28;20396;-67
2022/11/19 11:33:41;;;;;;;26.13;18.95;;;;;;;1.57;88.81;101223.91;4988728;28;20080;-68
2022/11/19 11:36:18;;;;;;;;;;;;;;;1.91;88.47;101220.31;4989145;28;20030;-68
2022/11/19 11:38:48;;;;;;;16.77;11.38;;;;;;;1.84;86.65;101209.28;4988381;28;19929;-68
2022/11/19 11:41:31;;;;;;;19.98;14.02;;;;;;;1.74;86.26;101222.13;4988678;28;20033;-69
2022/11/19 11:44:02;;;;;;;20.83;12.95;;;;;;;1.81;84.34;101213.16;4988713;28;20038;-69
2022/11/19 11:46:49;;;;;;;16.33;11.55;;;;;;;1.70;85.97;101215.31;4988061;28;20429;-69